Time;durP1;ratioP1;P1;durP2;ratioP2;P2;SDS_P1;SDS_P2;PMS_P1;PMS_P2;Temp;Humidity;BMP_temperature;BMP_pressure;BME280_temperature;BME280_humidity;BME280_pressure;Samples;Min_cycle;Max_cycle;Signal;HPM_P1;HPM_P2
2022/07/04 00:01:41;;;;;;;11.80;8.08;;;;;;;15.83;100.00;100341.89;1681223;85;22208;-68
2022/07/04 00:04:08;;;;;;;13.40;8.00;;;;;;;15.83;100.00;100347.20;1718365;83;21013;-68
2022/07/04 00:06:34;;;;;;;15.58;8.55;;;;;;;15.82;100.00;100341.01;1718390;83;21076;-70
2022/07/04 00:09:01;;;;;;;14.07;8.08;;;;;;;15.81;100.00;100347.27;1718100;83;21178;-68
2022/07/04 00:11:29;;;;;;;18.15;9.53;;;;;;;15.79;100.00;100342.99;1681195;85;21108;-69
2022/07/04 00:13:56;;;;;;;15.65;8.45;;;;;;;15.76;100.00;100341.37;1718373;83;21105;-68
2022/07/04 00:16:24;;;;;;;13.00;8.43;;;;;;;15.74;100.00;100340.59;1718274;83;21089;-68
2022/07/04 00:18:51;;;;;;;13.65;8.93;;;;;;;15.72;100.00;100339.34;1718542;83;21599;-69
2022/07/04 00:21:17;;;;;;;17.52;9.00;;;;;;;15.67;100.00;100333.40;1718311;83;21546;-69
2022/07/04 00:23:46;;;;;;;16.32;8.58;;;;;;;15.65;100.00;100333.09;1718288;83;21319;-69
2022/07/04 00:26:13;;;;;;;17.02;8.55;;;;;;;15.61;100.00;100337.70;1718182;83;21052;-69
2022/07/04 00:28:39;;;;;;;14.63;8.45;;;;;;;15.60;100.00;100336.45;1718750;83;21053;-69
2022/07/04 00:31:06;;;;;;;16.75;9.40;;;;;;;15.56;100.00;100334.45;1718298;83;21065;-68
2022/07/04 00:33:34;;;;;;;12.28;8.23;;;;;;;15.56;100.00;100339.77;1718327;83;21556;-68
2022/07/04 00:36:00;;;;;;;13.98;8.43;;;;;;;15.54;100.00;100345.63;1718380;83;21089;-69
2022/07/04 00:38:28;;;;;;;11.18;7.40;;;;;;;15.54;100.00;100346.95;1718294;83;21533;-68
2022/07/04 00:40:55;;;;;;;13.30;8.48;;;;;;;15.54;100.00;100349.60;1681293;85;21038;-69
2022/07/04 00:43:26;;;;;;;15.50;8.65;;;;;;;15.55;100.00;100353.95;1718282;83;21035;-68
2022/07/04 00:45:53;;;;;;;10.82;8.38;;;;;;;15.54;100.00;100349.60;1718153;83;21813;-67
2022/07/04 00:48:22;;;;;;;13.75;9.18;;;;;;;15.54;100.00;100352.25;1718187;83;21029;-67
2022/07/04 00:50:49;;;;;;;13.22;8.75;;;;;;;15.52;100.00;100348.83;1718126;83;21037;-67
2022/07/04 00:53:18;;;;;;;15.05;9.10;;;;;;;15.49;100.00;100347.67;1718400;83;21100;-69
2022/07/04 00:55:46;;;;;;;15.75;9.30;;;;;;;15.47;100.00;100344.24;1718296;83;21081;-68
2022/07/04 00:58:13;;;;;;;12.33;9.25;;;;;;;15.44;100.00;100341.77;1718185;83;21286;-69
2022/07/04 01:00:40;;;;;;;17.12;9.33;;;;;;;15.44;100.00;100345.75;1743350;81;21311;-69
2022/07/04 01:03:08;;;;;;;13.38;9.10;;;;;;;15.42;100.00;100342.31;1748037;82;21146;-68
2022/07/04 01:05:34;;;;;;;11.05;7.75;;;;;;;15.38;100.00;100342.08;1747941;82;21557;-68
2022/07/04 01:08:01;;;;;;;18.80;9.00;;;;;;;15.36;100.00;100339.98;1748386;82;20998;-70
2022/07/04 01:10:28;;;;;;;12.98;7.95;;;;;;;15.34;100.00;100337.39;1747474;82;22063;-69
2022/07/04 01:12:55;;;;;;;14.38;9.28;;;;;;;15.34;100.00;100345.36;1748096;82;21584;-71
2022/07/04 01:15:23;;;;;;;13.40;8.50;;;;;;;15.33;100.00;100342.33;1747821;82;21037;-71
2022/07/04 01:17:50;;;;;;;15.43;8.48;;;;;;;15.33;100.00;100346.78;1747866;82;21132;-70
2022/07/04 01:20:17;;;;;;;16.07;9.05;;;;;;;15.31;100.00;100349.03;1747867;82;21025;-70
2022/07/04 01:22:44;;;;;;;16.90;8.73;;;;;;;15.33;100.00;100348.11;1748457;82;21110;-67
2022/07/04 01:25:11;;;;;;;15.85;8.53;;;;;;;15.32;100.00;100344.58;1747691;82;21033;-69
2022/07/04 01:27:38;;;;;;;12.10;8.90;;;;;;;15.30;100.00;100343.35;1747796;82;21045;-68
2022/07/04 01:30:07;;;;;;;12.35;8.78;;;;;;;15.32;100.00;100345.91;1747813;82;21067;-69
2022/07/04 01:32:34;;;;;;;11.60;9.38;;;;;;;15.29;100.00;100342.95;1748343;82;21050;-68
2022/07/04 01:35:01;;;;;;;14.58;9.25;;;;;;;15.26;100.00;100343.13;1747875;82;21246;-67
2022/07/04 01:37:28;;;;;;;10.82;7.78;;;;;;;15.23;100.00;100348.59;1748013;82;21145;-67
2022/07/04 01:39:55;;;;;;;15.75;9.35;;;;;;;15.19;100.00;100337.75;1748055;82;21064;-67
2022/07/04 01:42:22;;;;;;;10.88;7.80;;;;;;;15.16;100.00;100336.60;1748016;82;21022;-67
2022/07/04 01:44:48;;;;;;;16.75;9.63;;;;;;;15.13;100.00;100339.39;1748262;82;21213;-67
2022/07/04 01:47:17;;;;;;;13.88;9.48;;;;;;;15.11;100.00;100331.98;1748207;82;21233;-66
2022/07/04 01:49:43;;;;;;;16.32;9.28;;;;;;;15.11;100.00;100338.61;1748486;82;21535;-68
2022/07/04 01:52:10;;;;;;;16.77;9.90;;;;;;;15.11;100.00;100337.28;1748206;82;21069;-68
2022/07/04 01:54:36;;;;;;;19.90;9.85;;;;;;;15.11;100.00;100334.63;1720852;82;21526;-68
2022/07/04 01:57:06;;;;;;;18.02;10.20;;;;;;;15.10;100.00;100341.74;1718422;83;21061;-68
2022/07/04 02:02:18;;;;;;;15.68;9.78;;;;;;;15.13;100.00;100341.20;1704818;83;21045;-68
2022/07/04 02:04:45;;;;;;;15.48;9.68;;;;;;;15.12;100.00;100339.50;1705315;84;21053;-70
2022/07/04 02:07:11;;;;;;;13.45;10.03;;;;;;;15.10;100.00;100343.06;1704999;83;21530;-69
2022/07/04 02:09:38;;;;;;;14.43;9.78;;;;;;;15.09;100.00;100344.46;1704878;83;21093;-70
2022/07/04 02:14:51;;;;;;;15.50;10.53;;;;;;;15.07;100.00;100339.73;1704659;84;21082;-70
2022/07/04 02:17:17;;;;;;;14.20;9.35;;;;;;;15.05;100.00;100336.30;1704656;83;21563;-71
2022/07/04 02:19:46;;;;;;;17.12;9.95;;;;;;;15.06;100.00;100341.98;1704808;84;21045;-71
2022/07/04 02:22:12;;;;;;;14.55;8.93;;;;;;;15.07;100.00;100341.91;1704988;84;21057;-70
2022/07/04 02:24:39;;;;;;;25.97;9.78;;;;;;;15.12;100.00;100345.66;1704782;84;21121;-69
2022/07/04 02:27:05;;;;;;;15.75;10.50;;;;;;;15.16;100.00;100355.17;1705163;84;21057;-69
2022/07/04 02:29:32;;;;;;;14.20;9.70;;;;;;;15.18;100.00;100357.24;1704649;83;21109;-69
2022/07/04 02:32:00;;;;;;;17.12;10.28;;;;;;;15.20;100.00;100351.39;1704916;83;21065;-70
2022/07/04 02:34:26;;;;;;;19.27;10.60;;;;;;;15.23;100.00;100352.58;1704745;83;21057;-71
2022/07/04 02:36:54;;;;;;;15.70;10.15;;;;;;;15.28;100.00;100351.86;1704803;83;21071;-70
2022/07/04 02:39:20;;;;;;;18.90;10.48;;;;;;;15.34;100.00;100362.60;1704494;84;21073;-70
2022/07/04 02:41:48;;;;;;;18.95;9.35;;;;;;;15.43;100.00;100359.94;1704949;84;21050;-71
2022/07/04 02:44:14;;;;;;;18.10;10.50;;;;;;;15.50;100.00;100357.34;1704790;84;21049;-69
2022/07/04 02:46:41;;;;;;;18.25;9.20;;;;;;;15.58;100.00;100359.13;1705033;84;21037;-68
2022/07/04 02:49:08;;;;;;;15.32;11.55;;;;;;;15.68;100.00;100362.98;1704990;84;21037;-70
2022/07/04 02:51:34;;;;;;;16.65;10.53;;;;;;;15.76;100.00;100356.42;1704984;83;21050;-70
2022/07/04 02:54:01;;;;;;;15.88;10.60;;;;;;;15.84;100.00;100360.38;1724873;82;21058;-69
2022/07/04 02:56:28;;;;;;;15.50;10.25;;;;;;;15.94;100.00;100363.37;1734118;82;21125;-70
2022/07/04 02:58:54;;;;;;;17.55;10.00;;;;;;;16.03;100.00;100360.20;1734031;82;21110;-71
2022/07/04 03:01:21;;;;;;;17.12;10.68;;;;;;;16.15;100.00;100361.34;1740047;81;21348;-72
2022/07/04 03:03:50;;;;;;;20.40;11.48;;;;;;;16.26;100.00;100354.06;1742412;82;21057;-73
2022/07/04 03:06:16;;;;;;;14.13;10.38;;;;;;;16.37;100.00;100355.63;1698676;83;21045;-70
2022/07/04 03:08:43;;;;;;;15.38;10.38;;;;;;;16.50;100.00;100359.78;1678462;85;21625;-72
2022/07/04 03:11:10;;;;;;;17.35;10.65;;;;;;;16.63;100.00;100361.23;1666168;86;21109;-71
2022/07/04 03:13:38;;;;;;;16.32;9.48;;;;;;;16.77;100.00;100358.16;1679550;84;21104;-71
2022/07/04 03:16:05;;;;;;;14.65;10.15;;;;;;;16.90;100.00;100353.47;1679786;84;21173;-71
2022/07/04 03:18:31;;;;;;;21.45;9.85;;;;;;;17.04;100.00;100356.63;1694385;84;21628;-72
2022/07/04 03:20:58;;;;;;;13.70;9.58;;;;;;;17.18;100.00;100360.64;1694382;84;21105;-72
2022/07/04 03:23:24;;;;;;;14.35;9.45;;;;;;;17.33;100.00;100354.87;1694347;84;21084;-71
2022/07/04 03:25:51;;;;;;;15.03;9.30;;;;;;;17.48;100.00;100359.70;1694603;84;21760;-70
2022/07/04 03:28:18;;;;;;;19.02;9.95;;;;;;;17.62;100.00;100355.70;1694399;84;21160;-72
2022/07/04 03:30:45;;;;;;;15.83;9.35;;;;;;;17.79;100.00;100358.16;1694267;84;21042;-72
2022/07/04 03:33:12;;;;;;;13.38;10.15;;;;;;;17.97;100.00;100356.66;1694453;84;21660;-72
2022/07/04 03:35:39;;;;;;;16.97;10.48;;;;;;;18.12;100.00;100354.31;1694297;84;21080;-72
2022/07/04 03:38:06;;;;;;;18.10;10.10;;;;;;;18.30;100.00;100348.75;1694380;84;21600;-73
2022/07/04 03:40:35;;;;;;;20.25;12.45;;;;;;;18.46;100.00;100353.45;1694230;84;21133;-72
2022/07/04 03:43:03;;;;;;;18.87;10.80;;;;;;;18.66;100.00;100355.64;1694656;84;21090;-72
2022/07/04 03:45:30;;;;;;;16.60;10.88;;;;;;;18.89;100.00;100358.60;1694238;84;21094;-74
2022/07/04 03:47:57;;;;;;;20.75;13.58;;;;;;;19.13;100.00;100360.54;1694673;84;21061;-71
2022/07/04 03:50:25;;;;;;;21.75;12.37;;;;;;;19.36;100.00;100357.12;1694289;84;21761;-72
2022/07/04 03:52:53;;;;;;;26.07;14.25;;;;;;;19.56;100.00;100355.72;1688423;84;21085;-71
2022/07/04 03:55:19;;;;;;;25.52;14.15;;;;;;;19.82;100.00;100357.04;1678519;85;21636;-71
2022/07/04 03:57:46;;;;;;;20.88;14.30;;;;;;;20.05;98.81;100353.55;1678595;85;21123;-72
2022/07/04 04:00:14;;;;;;;22.35;13.98;;;;;;;20.30;97.71;100348.58;1679934;84;21068;-73
2022/07/04 04:02:42;;;;;;;15.08;11.97;;;;;;;20.53;96.29;100346.02;1691632;84;21040;-71
2022/07/04 04:05:27;;;;;;;16.67;12.28;;;;;;;20.76;94.97;100348.81;1691073;84;21107;-72
2022/07/04 04:07:57;;;;;;;24.77;14.23;;;;;;;21.00;94.15;100340.22;1691124;84;21107;-72
2022/07/04 04:10:25;;;;;;;22.67;14.07;;;;;;;21.28;92.51;100340.28;1690296;84;21072;-72
2022/07/04 04:12:52;;;;;;;22.93;14.20;;;;;;;21.51;91.06;100345.20;1691289;84;21040;-72
2022/07/04 04:15:19;;;;;;;24.52;13.60;;;;;;;21.65;89.39;100345.44;1691094;84;21252;-72
2022/07/04 04:17:46;;;;;;;24.15;14.10;;;;;;;21.77;88.71;100342.25;1691297;84;21152;-72
2022/07/04 04:20:14;;;;;;;18.23;12.75;;;;;;;21.87;88.06;100347.72;1691168;84;21091;-75
2022/07/04 04:22:41;;;;;;;19.87;11.20;;;;;;;21.98;87.27;100343.68;1691424;84;21059;-71
2022/07/04 04:25:09;;;;;;;23.55;13.08;;;;;;;22.15;86.46;100343.62;1691279;84;21079;-72
2022/07/04 04:27:36;;;;;;;22.32;11.73;;;;;;;22.35;85.11;100334.83;1691509;84;21963;-73
2022/07/04 04:30:04;;;;;;;19.37;12.10;;;;;;;22.56;84.04;100335.35;1691043;84;21095;-72
2022/07/04 04:32:30;;;;;;;16.45;11.03;;;;;;;22.83;83.34;100338.88;1691110;84;21104;-73
2022/07/04 04:34:58;;;;;;;22.98;11.75;;;;;;;23.05;81.81;100328.51;1691371;84;21619;-72
2022/07/04 04:37:24;;;;;;;19.07;10.80;;;;;;;23.30;80.20;100337.14;1690967;84;21603;-72
2022/07/04 04:39:51;;;;;;;21.50;9.65;;;;;;;23.46;78.41;100334.30;1691297;84;21487;-72
2022/07/04 04:42:18;;;;;;;14.05;8.68;;;;;;;23.65;77.20;100337.59;1691039;84;21100;-73
2022/07/04 04:44:45;;;;;;;13.68;8.30;;;;;;;23.91;74.42;100339.81;1691190;84;21020;-72
2022/07/04 04:47:12;;;;;;;11.33;7.97;;;;;;;24.10;72.01;100334.97;1691221;84;21101;-71
2022/07/04 04:49:38;;;;;;;12.47;7.85;;;;;;;24.25;70.98;100335.42;1691296;84;21115;-72
2022/07/04 04:52:06;;;;;;;14.20;8.13;;;;;;;24.39;69.89;100332.31;1690890;84;21668;-73
2022/07/04 04:54:33;;;;;;;12.28;7.28;;;;;;;24.55;69.55;100333.13;1717410;83;21017;-72
2022/07/04 04:57:03;;;;;;;15.85;8.43;;;;;;;24.71;68.80;100337.95;1719719;83;21103;-72
2022/07/04 04:59:29;;;;;;;12.05;7.65;;;;;;;24.88;68.92;100336.35;1720264;83;21080;-73
2022/07/04 05:01:57;;;;;;;11.90;7.90;;;;;;;25.09;67.11;100341.55;1720002;83;21103;-72
2022/07/04 05:04:24;;;;;;;13.90;8.60;;;;;;;25.22;67.15;100336.73;1720028;83;21129;-73
2022/07/04 05:06:50;;;;;;;18.90;8.35;;;;;;;25.29;66.14;100335.66;1719792;83;21091;-72
2022/07/04 05:09:19;;;;;;;17.98;8.23;;;;;;;25.32;66.15;100330.80;1720078;83;21111;-72
2022/07/04 05:11:47;;;;;;;13.58;7.75;;;;;;;25.49;66.44;100331.02;1719715;83;21048;-72
2022/07/04 05:14:14;;;;;;;13.22;8.80;;;;;;;25.78;66.15;100331.39;1719791;83;21586;-73
2022/07/04 05:16:42;;;;;;;18.70;8.68;;;;;;;25.97;65.41;100329.95;1719836;83;21152;-71
2022/07/04 05:19:09;;;;;;;16.10;9.03;;;;;;;26.22;64.06;100332.92;1720086;83;21108;-71
2022/07/04 05:21:36;;;;;;;12.98;8.63;;;;;;;26.45;63.90;100324.70;1720225;83;21103;-72
2022/07/04 05:24:03;;;;;;;12.85;8.53;;;;;;;26.68;63.04;100324.27;1720182;83;21561;-71
2022/07/04 05:26:29;;;;;;;14.53;8.50;;;;;;;26.91;61.96;100322.75;1700243;83;21115;-72
2022/07/04 05:28:57;;;;;;;12.05;7.62;;;;;;;27.09;61.02;100315.95;1675304;84;21144;-72
2022/07/04 05:31:24;;;;;;;13.98;7.85;;;;;;;27.37;60.50;100317.98;1680797;84;21021;-73
2022/07/04 05:33:54;;;;;;;17.20;8.43;;;;;;;27.71;59.77;100320.35;1691306;84;21055;-72
2022/07/04 05:36:22;;;;;;;13.70;7.92;;;;;;;28.01;58.61;100316.25;1691067;84;21078;-71
2022/07/04 05:38:49;;;;;;;15.30;8.08;;;;;;;28.25;56.36;100312.72;1691319;84;21416;-71
2022/07/04 05:41:16;;;;;;;13.78;7.70;;;;;;;28.34;56.25;100317.65;1691059;84;21593;-72
2022/07/04 05:43:43;;;;;;;15.43;7.08;;;;;;;28.50;55.91;100313.62;1691084;84;21024;-72
2022/07/04 05:46:11;;;;;;;13.45;7.60;;;;;;;28.66;52.97;100308.20;1679865;84;21719;-71
2022/07/04 05:48:37;;;;;;;9.75;6.42;;;;;;;28.77;52.19;100308.89;1691099;84;21116;-71
2022/07/04 05:51:05;;;;;;;12.90;6.45;;;;;;;28.85;51.11;100311.09;1700435;83;21103;-71
2022/07/04 05:53:32;;;;;;;10.13;6.78;;;;;;;28.97;49.98;100308.87;1706182;83;21157;-73
2022/07/04 05:56:00;;;;;;;15.45;6.80;;;;;;;29.18;50.41;100308.86;1689951;84;21540;-71
2022/07/04 05:58:26;;;;;;;8.88;6.22;;;;;;;29.41;49.71;100302.18;1678419;84;21072;-72
2022/07/04 06:00:53;;;;;;;13.00;6.92;;;;;;;29.57;46.75;100302.63;1685018;84;21020;-71
2022/07/04 06:03:19;;;;;;;13.32;6.70;;;;;;;29.65;44.13;100305.29;1698264;82;21096;-71
2022/07/04 06:05:46;;;;;;;15.28;6.90;;;;;;;29.78;43.84;100301.53;1713143;82;21229;-71
2022/07/04 06:08:13;;;;;;;9.70;6.00;;;;;;;30.06;43.06;100298.31;1725174;82;21097;-72
2022/07/04 06:10:40;;;;;;;8.55;5.37;;;;;;;30.35;40.75;100302.23;1734336;82;21680;-73
2022/07/04 06:13:07;;;;;;;11.83;5.30;;;;;;;30.41;39.30;100289.27;1725397;82;21035;-71
2022/07/04 06:15:35;;;;;;;9.58;5.45;;;;;;;30.39;38.95;100295.39;1695706;82;21062;-71
2022/07/04 06:18:02;;;;;;;6.83;5.50;;;;;;;30.41;38.45;100290.63;1721032;82;21125;-71
2022/07/04 06:20:29;;;;;;;7.75;5.78;;;;;;;30.48;37.50;100290.22;1734051;82;21018;-71
2022/07/04 06:22:56;;;;;;;6.67;5.28;;;;;;;30.68;37.48;100289.20;1718918;82;21049;-71
2022/07/04 06:25:23;;;;;;;10.18;5.33;;;;;;;30.88;36.50;100289.56;1698702;82;21077;-71
2022/07/04 06:27:51;;;;;;;6.67;4.62;;;;;;;31.00;37.03;100287.23;1723993;82;21121;-71
2022/07/04 06:30:18;;;;;;;7.50;5.03;;;;;;;31.14;34.98;100277.70;1734178;82;21810;-72
2022/07/04 06:32:48;;;;;;;8.00;5.40;;;;;;;31.46;35.53;100274.30;1734161;82;20999;-72
2022/07/04 06:38:07;;;;;;;9.90;5.12;;;;;;;31.86;35.24;100274.77;1712918;82;21031;-71
2022/07/04 06:40:35;;;;;;;9.10;5.35;;;;;;;31.85;34.26;100273.10;1705197;82;21074;-72
2022/07/04 06:43:03;;;;;;;8.33;5.20;;;;;;;31.81;34.49;100268.23;1705213;82;21046;-71
2022/07/04 06:45:30;;;;;;;9.35;5.55;;;;;;;31.96;34.50;100271.27;1722251;82;21074;-72
2022/07/04 06:47:57;;;;;;;6.97;5.15;;;;;;;32.01;33.83;100269.33;1728562;82;21030;-72
2022/07/04 06:50:24;;;;;;;6.80;4.53;;;;;;;32.08;33.74;100261.23;1704969;82;21604;-73
2022/07/04 06:52:51;;;;;;;6.17;4.65;;;;;;;32.30;33.09;100253.38;1693872;82;21074;-71
2022/07/04 06:55:17;;;;;;;7.17;4.85;;;;;;;32.46;32.11;100255.48;1700256;82;22060;-72
2022/07/04 06:58:02;;;;;;;11.80;5.30;;;;;;;32.67;31.88;100252.77;1668807;82;21557;-72
2022/07/04 07:00:32;;;;;;;7.95;5.03;;;;;;;32.48;32.41;100251.52;1720630;82;21018;-71
2022/07/04 07:02:59;;;;;;;7.90;4.37;;;;;;;32.47;32.44;100255.83;1745505;81;21085;-72
2022/07/04 07:05:27;;;;;;;11.20;5.12;;;;;;;32.57;32.36;100260.44;1748388;82;21013;-71
2022/07/04 07:07:53;;;;;;;7.87;5.03;;;;;;;32.60;31.65;100258.17;1747932;82;21273;-72
2022/07/04 07:10:21;;;;;;;7.67;4.95;;;;;;;32.66;31.82;100256.52;1748417;82;21088;-72
2022/07/04 07:12:48;;;;;;;9.70;5.25;;;;;;;32.73;32.38;100259.30;1747945;82;21097;-72
2022/07/04 07:15:16;;;;;;;7.03;4.55;;;;;;;32.79;31.98;100257.98;1748333;82;21041;-73
2022/07/04 07:17:43;;;;;;;6.40;4.40;;;;;;;32.88;32.09;100261.41;1747987;82;21017;-73
2022/07/04 07:20:11;;;;;;;7.22;4.78;;;;;;;32.98;32.56;100260.52;1748097;82;21172;-73
2022/07/04 07:22:38;;;;;;;7.33;4.15;;;;;;;33.14;31.50;100260.75;1742601;82;21085;-73
2022/07/04 07:25:05;;;;;;;8.88;4.65;;;;;;;33.31;31.59;100260.42;1738919;82;21081;-73
2022/07/04 07:27:33;;;;;;;6.97;4.70;;;;;;;33.59;31.49;100268.05;1726146;82;21573;-72
2022/07/04 07:30:00;;;;;;;5.37;4.33;;;;;;;33.70;30.70;100267.13;1727865;82;21033;-73
2022/07/04 07:32:26;;;;;;;5.45;4.05;;;;;;;33.39;31.16;100269.81;1718787;82;21694;-72
2022/07/04 07:34:53;;;;;;;4.50;3.70;;;;;;;33.21;31.10;100264.89;1748134;82;21045;-72
2022/07/04 07:37:21;;;;;;;11.50;4.58;;;;;;;33.06;31.10;100266.39;1747890;82;21088;-72
2022/07/04 07:39:49;;;;;;;7.85;4.15;;;;;;;32.84;32.27;100268.83;1748220;82;21065;-72
2022/07/04 07:42:17;;;;;;;4.72;4.08;;;;;;;32.60;32.51;100263.63;1718543;82;21073;-72
2022/07/04 07:44:46;;;;;;;5.50;4.33;;;;;;;32.64;32.62;100266.78;1720616;82;21138;-73
2022/07/04 07:47:16;;;;;;;5.42;4.60;;;;;;;32.76;31.96;100263.85;1719036;82;21037;-72
2022/07/04 07:49:44;;;;;;;5.60;3.92;;;;;;;33.03;32.03;100258.56;1733485;82;21596;-73
2022/07/04 07:52:11;;;;;;;12.13;3.62;;;;;;;33.37;31.39;100258.26;1718220;82;21132;-72
2022/07/04 07:54:38;;;;;;;9.58;4.25;;;;;;;33.33;29.97;100259.70;1742859;82;21061;-72
2022/07/04 07:57:05;;;;;;;6.75;4.03;;;;;;;33.27;30.74;100255.91;1719744;82;21132;-73
2022/07/04 07:59:33;;;;;;;7.70;4.10;;;;;;;33.05;30.81;100261.13;1732261;82;21081;-72
2022/07/04 08:01:59;;;;;;;5.05;3.62;;;;;;;32.90;30.69;100257.97;1748302;81;21507;-73
2022/07/04 08:04:35;;;;;;;6.80;3.40;;;;;;;32.83;30.76;100263.04;1748158;82;21061;-73
2022/07/04 08:07:04;;;;;;;6.30;4.28;;;;;;;32.94;30.91;100263.85;1733123;82;21069;-73
2022/07/04 08:09:32;;;;;;;5.62;3.80;;;;;;;33.25;30.74;100259.89;1737083;82;21086;-73
2022/07/04 08:12:00;;;;;;;5.37;3.60;;;;;;;33.58;30.41;100256.80;1722815;82;21109;-71
2022/07/04 08:14:26;;;;;;;5.28;3.83;;;;;;;33.89;29.54;100255.44;1748240;82;21077;-72
2022/07/04 08:16:54;;;;;;;6.95;4.03;;;;;;;34.23;29.72;100252.24;1733743;82;21073;-72
2022/07/04 08:19:21;;;;;;;5.28;3.52;;;;;;;34.71;29.32;100249.33;1719702;82;21620;-73
2022/07/04 08:21:48;;;;;;;7.37;3.95;;;;;;;35.08;28.44;100249.67;1730917;82;21218;-73
2022/07/04 08:24:15;;;;;;;4.28;3.60;;;;;;;35.19;28.27;100245.48;1734331;82;21029;-73
2022/07/04 08:26:42;;;;;;;10.43;3.98;;;;;;;35.12;27.78;100249.59;1748443;82;21506;-74
2022/07/04 08:29:09;;;;;;;8.70;3.90;;;;;;;34.54;28.24;100250.80;1741034;82;21092;-73
2022/07/04 08:31:44;;;;;;;7.45;3.90;;;;;;;33.93;29.04;100256.68;1729950;82;21100;-72
2022/07/04 08:34:11;;;;;;;7.08;4.03;;;;;;;33.40;29.90;100255.11;1738374;81;21549;-72
2022/07/04 08:36:38;;;;;;;5.53;3.58;;;;;;;33.20;30.25;100246.84;1730880;82;20998;-72
2022/07/04 08:39:05;;;;;;;5.37;3.50;;;;;;;33.38;29.32;100251.73;1730281;82;21041;-71
2022/07/04 08:41:38;;;;;;;6.62;3.62;;;;;;;33.64;29.29;100243.70;1731710;82;21124;-74
2022/07/04 08:44:07;;;;;;;8.13;3.42;;;;;;;34.15;28.83;100245.09;1738168;82;21037;-72
2022/07/04 08:46:35;;;;;;;;;;;;;;;34.37;27.14;100247.13;1731923;82;21231;-73
2022/07/04 08:49:03;;;;;;;8.58;3.70;;;;;;;34.47;27.76;100231.13;1718127;83;20488;-72
2022/07/04 08:51:54;;;;;;;7.08;3.50;;;;;;;34.75;28.41;100233.34;1718107;83;21566;-72
2022/07/04 08:59:58;;;;;;;6.67;3.20;;;;;;;34.46;26.61;100232.19;1738490;82;21619;-73
2022/07/04 09:02:27;;;;;;;5.53;3.10;;;;;;;34.68;26.42;100229.25;1725680;82;21093;-74
2022/07/04 09:04:53;;;;;;;6.47;3.17;;;;;;;34.91;26.32;100232.05;1737863;82;21478;-72
2022/07/04 09:07:20;;;;;;;6.35;3.22;;;;;;;35.02;26.24;100229.50;1748005;82;21112;-74
2022/07/04 09:09:46;;;;;;;10.30;3.37;;;;;;;34.94;26.23;100225.61;1727152;82;21134;-72
2022/07/04 09:12:14;;;;;;;4.97;3.00;;;;;;;35.01;25.71;100223.70;1731830;82;21068;-73
2022/07/04 09:16:57;;;;;;;8.35;3.27;;;;;;;35.19;26.76;100223.05;1792646;79;22685;-72
2022/07/04 09:19:25;;;;;;;13.58;3.62;;;;;;;35.28;26.61;100221.75;1707804;83;21384;-71
2022/07/04 09:21:51;;;;;;;6.33;3.60;;;;;;;35.33;26.18;100224.37;1743479;81;21226;-72
2022/07/04 09:24:45;;;;;;;5.28;3.30;;;;;;;35.22;26.58;100218.50;1756699;81;21022;-73
2022/07/04 09:27:14;;;;;;;6.15;3.02;;;;;;;35.12;26.78;100218.12;1756522;81;21053;-71
2022/07/04 09:29:53;;;;;;;6.30;3.70;;;;;;;34.95;25.83;100222.34;1729981;81;21017;-72
2022/07/04 09:32:41;;;;;;;5.78;3.60;;;;;;;34.74;25.99;100218.84;1726330;83;21545;-72
2022/07/04 09:35:22;;;;;;;5.42;3.33;;;;;;;34.76;26.50;100219.97;1726420;83;21110;-72
2022/07/04 09:37:55;;;;;;;7.20;3.80;;;;;;;34.65;26.59;100222.84;1735439;80;20981;-71
2022/07/04 09:40:27;;;;;;;7.42;3.87;;;;;;;34.39;27.02;100213.55;1719296;83;21032;-72
2022/07/04 09:42:57;;;;;;;4.53;3.33;;;;;;;34.32;26.81;100220.92;1709366;84;21078;-74
2022/07/04 09:45:24;;;;;;;5.63;3.43;;;;;;;34.14;26.78;100227.53;1709815;83;21042;-72
2022/07/04 09:47:55;;;;;;;5.45;3.50;;;;;;;34.06;27.18;100228.02;1709051;84;21126;-73
2022/07/04 09:50:22;;;;;;;5.40;3.17;;;;;;;34.23;26.84;100222.18;1719193;83;21028;-73
2022/07/04 09:53:00;;;;;;;5.95;2.92;;;;;;;34.23;27.94;100219.45;1686738;83;21095;-73
2022/07/04 09:55:31;;;;;;;5.10;3.60;;;;;;;33.98;27.40;100222.77;1681046;83;21065;-71
2022/07/04 09:58:02;;;;;;;5.33;3.30;;;;;;;33.84;27.63;100221.05;1711594;83;21040;-72
2022/07/04 10:00:37;;;;;;;7.35;3.60;;;;;;;33.80;27.56;100221.16;1691577;83;21786;-72
2022/07/04 10:03:20;;;;;;;5.55;3.60;;;;;;;33.89;27.71;100214.46;1691595;83;21111;-72
2022/07/04 10:06:08;;;;;;;3.47;3.15;;;;;;;34.13;27.85;100213.57;1693869;84;21123;-75
2022/07/04 10:08:35;;;;;;;4.70;3.27;;;;;;;34.33;27.19;100214.95;1680186;84;21089;-72
2022/07/04 10:11:04;;;;;;;6.70;3.70;;;;;;;34.79;26.94;100199.88;1686290;85;21091;-72
2022/07/04 10:13:30;;;;;;;4.62;3.90;;;;;;;35.05;26.37;100198.12;1679037;84;21112;-73
2022/07/04 10:15:57;;;;;;;5.97;3.40;;;;;;;35.28;26.30;100194.38;1676086;84;21084;-71
2022/07/04 10:18:24;;;;;;;3.98;3.20;;;;;;;35.52;25.58;100197.41;1674415;85;21052;-74
2022/07/04 10:20:52;;;;;;;5.95;4.00;;;;;;;35.28;25.40;100198.48;1688623;84;21056;-72
2022/07/04 10:23:20;;;;;;;6.30;3.70;;;;;;;35.11;26.13;100190.46;1675958;84;21092;-72
2022/07/04 10:25:52;;;;;;;6.40;3.60;;;;;;;34.87;26.47;100187.33;1657093;85;21074;-72
2022/07/04 10:28:18;;;;;;;7.20;3.55;;;;;;;34.37;27.35;100197.92;1676424;83;21056;-73
2022/07/04 10:30:52;;;;;;;5.75;3.42;;;;;;;33.89;27.86;100202.17;1696071;83;21134;-72
2022/07/04 10:33:25;;;;;;;5.78;3.52;;;;;;;33.69;28.85;100198.55;1709630;83;21395;-72
2022/07/04 10:36:01;;;;;;;4.72;3.60;;;;;;;33.73;27.90;100196.57;1708572;83;21062;-72
2022/07/04 10:38:32;;;;;;;4.15;3.47;;;;;;;33.99;27.96;100188.93;1700130;84;21131;-72
2022/07/04 10:41:05;;;;;;;4.95;3.60;;;;;;;34.21;27.68;100186.02;1707768;83;21057;-73
2022/07/04 10:43:37;;;;;;;4.50;3.40;;;;;;;34.43;26.90;100183.38;1709567;83;21049;-73
2022/07/04 10:46:27;;;;;;;5.05;3.60;;;;;;;34.81;26.58;100175.89;1685149;83;21064;-74
2022/07/04 10:49:21;;;;;;;8.85;3.60;;;;;;;35.22;26.10;100186.19;1686849;84;21563;-72
2022/07/04 10:52:10;;;;;;;5.62;3.55;;;;;;;35.38;25.95;100179.37;1700132;84;21141;-73
2022/07/04 10:54:39;;;;;;;5.95;3.17;;;;;;;35.61;25.98;100161.89;1676199;84;21600;-71
2022/07/04 10:57:20;;;;;;;6.70;3.60;;;;;;;35.98;25.46;100157.94;1700509;83;21052;-72
2022/07/04 11:00:02;;;;;;;6.05;3.25;;;;;;;36.21;25.57;100158.72;1706575;83;21080;-72
2022/07/04 11:02:36;;;;;;;5.55;3.40;;;;;;;36.03;25.04;100162.24;1684052;84;21067;-72
2022/07/04 11:05:11;;;;;;;5.62;3.50;;;;;;;35.53;25.40;100159.39;1687195;85;21216;-72
2022/07/04 11:07:44;;;;;;;3.87;3.12;;;;;;;35.00;26.49;100165.10;1658648;85;21093;-71
2022/07/04 11:10:21;;;;;;;4.55;3.58;;;;;;;34.60;26.26;100157.82;1680863;84;21072;-73
2022/07/04 11:13:02;;;;;;;4.67;3.52;;;;;;;34.06;27.00;100161.08;1665616;85;21061;-75
2022/07/04 11:15:38;;;;;;;3.65;3.30;;;;;;;33.58;27.66;100162.59;1670773;84;21109;-72
2022/07/04 11:18:12;;;;;;;8.83;3.40;;;;;;;33.56;28.21;100159.20;1669054;85;21893;-72
2022/07/04 11:20:49;;;;;;;5.55;3.55;;;;;;;33.66;28.06;100159.35;1737758;82;21085;-75
2022/07/04 11:23:21;;;;;;;15.78;4.17;;;;;;;33.82;27.56;100150.76;1739395;82;21061;-73
2022/07/04 11:25:50;;;;;;;6.03;3.55;;;;;;;33.98;28.35;100146.28;1706043;82;21558;-73
2022/07/04 11:28:30;;;;;;;6.83;4.00;;;;;;;33.82;28.18;100149.39;1722121;82;21084;-73
2022/07/04 11:31:00;;;;;;;6.15;3.30;;;;;;;33.89;27.45;100133.02;1726118;82;21268;-72
2022/07/04 11:33:31;;;;;;;5.17;3.27;;;;;;;34.20;27.62;100137.89;1722991;82;21074;-72
2022/07/04 11:36:25;;;;;;;6.37;3.33;;;;;;;33.93;27.80;100140.58;1739237;82;21495;-73
2022/07/04 11:38:57;;;;;;;7.53;3.60;;;;;;;33.67;27.98;100143.30;1737438;82;28268;-72
2022/07/04 11:47:07;;;;;;;7.50;3.37;;;;;;;33.76;27.75;100142.89;1712370;82;21124;-72